Current Weather

Laguardia

New York, New York (KLGA)

Report from: Friday, February 23, 2024 2:51 PM EST
Current time: Friday, February 23, 2024 3:36 PM EST

Nearby weather – Weather history – Daily summaries
Weather forecast

Temperature7.2°C (45.0°F)
Wind chill4.3°C (39.7°F)
Dew point2.2°C (36.0°F)
Winds 9 kts (4.6 m/s, 10.4 mph) North-Northeast (20°)
Visibility10 mi. (16.1 km)
Clouds Few clouds 2,000 ft. (610 m)
Ceiling: Broken clouds 3,900 ft. (1,189 m)
Broken clouds 14,000 ft. (4,267 m)
Broken clouds 25,000 ft. (7,620 m)
Altimeter29.45 in.Hg (997 mB)
Relative humidity71 %
Density altitude-279 ft. (-85 m)
Sea-level pressure99.7 kPa (997 mB, 29.44 in.Hg)
Remarks Automated weather observing station with precipitation discriminator
Flight conditions Visual Meteorological Conditions
Raw dataKLGA 231951Z 02009KT 10SM FEW020 BKN039 BKN140 BKN250 07/02 A2945 RMK AO2 SLP971 T00720022
An error has occurred. This application may no longer respond until reloaded. Reload 🗙